createdAt,value
2018-07-14T00:00:45.180Z,96.60
2018-07-14T00:03:14.162Z,96.60
2018-07-14T00:05:43.157Z,96.60
2018-07-14T00:08:12.132Z,97.00
2018-07-14T00:10:42.012Z,97.50
2018-07-14T00:13:11.029Z,97.80
2018-07-14T00:15:40.062Z,98.00
2018-07-14T00:18:09.038Z,97.80
2018-07-14T00:20:39.202Z,97.80
2018-07-14T00:23:08.282Z,97.70
2018-07-14T00:25:42.694Z,97.70
2018-07-14T00:28:11.672Z,98.10
2018-07-14T00:30:40.617Z,98.30
2018-07-14T00:33:10.732Z,98.20
2018-07-14T00:35:39.717Z,98.30
2018-07-14T00:38:09.512Z,97.60
2018-07-14T00:40:38.507Z,97.40
2018-07-14T00:43:07.514Z,97.40
2018-07-14T00:45:36.470Z,97.70
2018-07-14T00:48:05.535Z,97.60
2018-07-14T00:50:34.515Z,97.70
2018-07-14T00:53:03.813Z,97.80
2018-07-14T00:55:33.616Z,97.60
2018-07-14T00:58:02.638Z,97.50
2018-07-14T01:00:32.704Z,97.50
2018-07-14T01:03:01.702Z,97.40
2018-07-14T01:05:31.936Z,98.10
2018-07-14T01:08:01.018Z,97.60
2018-07-14T01:10:29.970Z,97.90
2018-07-14T01:12:58.960Z,97.90
2018-07-14T01:15:27.969Z,98.80
2018-07-14T01:17:56.947Z,98.60
2018-07-14T01:20:25.922Z,99.00
2018-07-14T01:22:54.894Z,99.10
2018-07-14T01:25:24.882Z,99.10
2018-07-14T01:27:54.534Z,99.90
2018-07-14T01:30:23.526Z,99.90
2018-07-14T01:32:53.746Z,99.90
2018-07-14T01:35:22.714Z,99.90
2018-07-14T01:37:51.715Z,99.90
2018-07-14T01:40:20.676Z,99.90
2018-07-14T01:42:49.650Z,99.90
2018-07-14T01:45:18.599Z,99.90
2018-07-14T01:47:47.590Z,99.90
2018-07-14T01:50:16.526Z,99.90
2018-07-14T01:52:45.521Z,99.90
2018-07-14T01:55:14.487Z,99.90
2018-07-14T01:57:43.487Z,99.90
2018-07-14T02:00:12.952Z,99.90
2018-07-14T02:02:41.922Z,99.90
2018-07-14T02:05:10.882Z,99.90
2018-07-14T02:07:39.912Z,99.90
2018-07-14T02:10:09.245Z,99.90
2018-07-14T02:12:38.440Z,99.90
2018-07-14T02:15:07.418Z,99.90
2018-07-14T02:17:36.409Z,99.90
2018-07-14T02:20:05.509Z,99.90
2018-07-14T02:22:34.478Z,99.90
2018-07-14T02:25:03.439Z,99.90
2018-07-14T02:27:32.408Z,99.90
2018-07-14T02:32:30.020Z,99.90
2018-07-14T02:34:58.979Z,99.90
2018-07-14T02:37:28.006Z,99.90
2018-07-14T02:39:56.951Z,99.90
2018-07-14T02:42:25.898Z,99.90
2018-07-14T02:44:55.017Z,99.90
2018-07-14T02:47:24.312Z,99.90
2018-07-14T02:49:53.307Z,99.90
2018-07-14T02:52:22.262Z,99.90
2018-07-14T02:54:52.805Z,99.90
2018-07-14T02:57:21.771Z,99.90
2018-07-14T02:59:51.304Z,99.90
2018-07-14T03:02:20.214Z,99.90
2018-07-14T03:04:49.185Z,99.90
2018-07-14T03:07:18.126Z,99.90
2018-07-14T03:09:47.106Z,99.90
2018-07-14T03:12:16.473Z,99.90
2018-07-14T03:14:45.481Z,99.90
2018-07-14T03:17:15.125Z,99.90
2018-07-14T03:19:44.807Z,99.90
2018-07-14T03:22:13.836Z,99.90
2018-07-14T03:24:42.827Z,99.90
2018-07-14T03:27:11.793Z,99.90
2018-07-14T03:29:40.823Z,99.90
2018-07-14T03:32:10.883Z,99.90
2018-07-14T03:34:39.853Z,99.90
2018-07-14T03:37:08.819Z,99.90
2018-07-14T03:39:37.794Z,99.90
2018-07-14T03:42:07.571Z,99.90
2018-07-14T03:44:36.559Z,99.90
2018-07-14T03:47:05.519Z,99.90
2018-07-14T03:49:35.029Z,99.90
2018-07-14T03:54:32.731Z,99.90
2018-07-14T03:57:01.876Z,99.90
2018-07-14T03:59:31.377Z,99.90
2018-07-14T04:02:00.425Z,99.90
2018-07-14T04:04:29.398Z,99.90
2018-07-14T04:06:58.349Z,99.90
2018-07-14T04:09:28.651Z,99.90
2018-07-14T04:11:57.621Z,99.90
2018-07-14T04:14:26.621Z,99.90
2018-07-14T04:16:55.585Z,99.90
2018-07-14T04:19:24.566Z,99.90
2018-07-14T04:21:53.535Z,99.90
2018-07-14T04:24:22.518Z,99.90
2018-07-14T04:26:51.602Z,99.90
2018-07-14T04:29:21.830Z,99.90
2018-07-14T04:31:50.797Z,99.90
2018-07-14T04:34:19.802Z,99.90
2018-07-14T04:36:48.833Z,99.90
2018-07-14T04:39:17.807Z,99.90
2018-07-14T04:41:46.751Z,99.90
2018-07-14T04:44:15.817Z,99.90
2018-07-14T04:46:44.774Z,99.90
2018-07-14T04:49:13.743Z,99.90
2018-07-14T04:51:42.688Z,99.90
2018-07-14T04:54:13.525Z,99.90
2018-07-14T04:56:42.487Z,99.90
2018-07-14T04:59:11.470Z,99.90
2018-07-14T05:01:40.982Z,99.90
2018-07-14T05:04:10.125Z,99.90
2018-07-14T05:06:39.110Z,99.90
2018-07-14T05:09:08.355Z,99.90
2018-07-14T05:11:37.327Z,99.90
2018-07-14T05:14:06.353Z,99.90
2018-07-14T05:16:35.448Z,99.90
2018-07-14T05:19:04.449Z,99.90
2018-07-14T05:21:33.619Z,99.90
2018-07-14T05:24:03.423Z,99.90
2018-07-14T05:26:32.402Z,99.90
2018-07-14T05:29:02.107Z,99.90
2018-07-14T05:31:31.388Z,99.90
2018-07-14T05:34:00.379Z,99.90
2018-07-14T05:36:29.366Z,99.90
2018-07-14T05:38:59.137Z,99.90
2018-07-14T05:41:28.109Z,99.90
2018-07-14T05:43:57.122Z,99.90
2018-07-14T05:46:27.043Z,99.90
2018-07-14T05:48:56.239Z,99.90
2018-07-14T05:51:27.230Z,99.90
2018-07-14T05:53:56.273Z,99.90
2018-07-14T05:56:25.378Z,99.90
2018-07-14T05:58:54.323Z,99.90
2018-07-14T06:01:23.338Z,99.90
2018-07-14T06:03:53.264Z,99.90
2018-07-14T06:06:22.417Z,99.90
2018-07-14T06:08:53.246Z,99.90
2018-07-14T06:11:24.243Z,99.90
2018-07-14T06:13:53.229Z,99.90
2018-07-14T06:16:22.966Z,99.90
2018-07-14T06:18:51.942Z,99.90
2018-07-14T06:21:21.154Z,99.90
2018-07-14T06:23:50.506Z,99.90
2018-07-14T06:26:20.039Z,99.90
2018-07-14T06:28:49.002Z,99.90
2018-07-14T06:31:18.626Z,99.70
2018-07-14T06:33:47.595Z,99.50
2018-07-14T06:36:16.578Z,99.60
2018-07-14T06:38:46.067Z,99.70
2018-07-14T06:41:17.909Z,99.60
2018-07-14T06:43:46.875Z,99.50
2018-07-14T06:46:15.834Z,99.50
2018-07-14T06:48:44.850Z,99.70
2018-07-14T06:51:13.854Z,99.60
2018-07-14T06:53:42.829Z,99.40
2018-07-14T06:56:12.094Z,99.40
2018-07-14T06:58:41.052Z,99.40
2018-07-14T07:01:10.056Z,99.30
2018-07-14T07:03:39.005Z,99.60
2018-07-14T07:06:11.047Z,98.70
2018-07-14T07:08:40.088Z,98.50
2018-07-14T07:11:15.321Z,98.30
2018-07-14T07:13:53.970Z,98.40
2018-07-14T07:16:25.718Z,98.30
2018-07-14T07:18:58.034Z,98.10
2018-07-14T07:21:33.872Z,97.70
2018-07-14T07:24:04.623Z,97.80
2018-07-14T07:26:35.373Z,97.10
2018-07-14T07:29:05.670Z,96.50
2018-07-14T07:31:36.698Z,96.10
2018-07-14T07:34:06.828Z,95.40
2018-07-14T07:36:36.577Z,95.10
2018-07-14T07:39:06.492Z,94.90
2018-07-14T07:41:38.078Z,95.00
2018-07-14T07:44:08.658Z,94.10
2018-07-14T07:46:41.646Z,93.70
2018-07-14T07:49:10.698Z,92.80
2018-07-14T07:51:40.974Z,92.00
2018-07-14T07:54:10.008Z,90.30
2018-07-14T07:56:47.649Z,87.00
2018-07-14T07:59:18.356Z,83.30
2018-07-14T08:01:48.992Z,76.20
2018-07-14T08:04:21.643Z,63.20
2018-07-14T08:06:53.689Z,62.10
2018-07-14T08:09:22.776Z,57.70
2018-07-14T08:14:21.664Z,48.50
2018-07-14T08:16:51.014Z,48.20
2018-07-14T08:19:21.036Z,45.00
2018-07-14T08:21:53.305Z,43.10
2018-07-14T08:24:22.834Z,43.20
2018-07-14T08:26:54.581Z,42.00
2018-07-14T08:31:52.182Z,41.60
2018-07-14T10:58:38.199Z,63.40
2018-07-14T11:01:07.458Z,52.90
2018-07-14T11:03:37.546Z,54.00
2018-07-14T11:06:06.619Z,56.10
2018-07-14T11:08:36.411Z,56.30
2018-07-14T11:11:05.358Z,56.50
2018-07-14T11:13:34.334Z,58.30
2018-07-14T11:16:03.856Z,58.10
2018-07-14T11:18:33.030Z,58.50
2018-07-14T11:21:02.105Z,59.90
2018-07-14T11:23:31.133Z,61.00
2018-07-14T11:26:00.118Z,60.70
2018-07-14T11:28:29.111Z,61.20
2018-07-14T11:30:58.061Z,62.70
2018-07-14T11:35:56.880Z,61.40
2018-07-14T11:38:25.869Z,61.60
2018-07-14T11:40:55.640Z,62.70
2018-07-14T11:43:25.254Z,62.70
2018-07-14T11:45:54.215Z,63.40
2018-07-14T11:48:24.297Z,62.80
2018-07-14T11:50:53.279Z,62.20
2018-07-14T11:53:22.399Z,64.60
2018-07-14T11:55:52.796Z,64.10
2018-07-14T11:58:23.155Z,64.90
2018-07-14T12:00:52.284Z,65.20
2018-07-14T12:03:21.414Z,65.40
2018-07-14T12:05:50.522Z,65.30
2018-07-14T12:08:19.660Z,66.30
2018-07-14T12:10:48.808Z,66.90
2018-07-14T12:13:17.963Z,65.10
2018-07-14T12:15:47.132Z,65.90
2018-07-14T12:18:17.020Z,65.10
2018-07-14T12:23:16.767Z,64.20
2018-07-14T12:25:46.428Z,65.90
2018-07-14T12:28:15.527Z,66.30
2018-07-14T12:30:45.096Z,66.10
2018-07-14T12:33:14.209Z,65.80
2018-07-14T12:35:43.338Z,66.10
2018-07-14T12:38:12.471Z,66.00
2018-07-14T12:40:42.409Z,65.40
2018-07-14T12:43:11.534Z,65.20
2018-07-14T12:45:40.668Z,65.40
2018-07-14T12:48:11.045Z,64.20
2018-07-14T12:50:40.248Z,65.00
2018-07-14T12:53:09.358Z,65.00
2018-07-14T12:55:38.499Z,64.60
2018-07-14T12:58:07.731Z,64.20
2018-07-14T13:00:36.972Z,64.50
2018-07-14T13:03:12.824Z,62.80
2018-07-14T13:05:41.855Z,65.40
2018-07-14T13:08:11.294Z,64.90
2018-07-14T13:10:40.279Z,65.70
2018-07-14T13:13:09.238Z,66.10
2018-07-14T13:15:38.225Z,66.10
2018-07-14T13:18:07.195Z,65.20
2018-07-14T13:20:36.169Z,64.70
2018-07-14T13:23:05.133Z,64.50
2018-07-14T13:25:34.923Z,64.10
2018-07-14T13:28:03.911Z,64.10
2018-07-14T13:30:33.415Z,64.60
2018-07-14T13:33:02.427Z,64.40
2018-07-14T13:35:31.377Z,64.70
2018-07-14T13:38:00.361Z,64.20
2018-07-14T13:40:29.466Z,64.10
2018-07-14T13:42:59.376Z,65.40
2018-07-14T13:45:28.339Z,65.30
2018-07-14T13:47:57.333Z,64.50
2018-07-14T13:50:26.299Z,65.00
2018-07-14T13:52:55.299Z,65.70
2018-07-14T13:55:24.262Z,64.60
2018-07-14T13:57:53.770Z,65.40
2018-07-14T14:00:22.767Z,65.70
2018-07-14T14:02:51.726Z,64.90
2018-07-14T14:05:20.679Z,64.70
2018-07-14T14:07:50.183Z,64.80
2018-07-14T14:10:19.198Z,65.60
2018-07-14T14:12:48.204Z,65.60
2018-07-14T14:15:17.977Z,66.30
2018-07-14T14:17:47.588Z,66.20
2018-07-14T14:20:16.542Z,65.40
2018-07-14T14:22:45.531Z,65.20
2018-07-14T14:25:14.546Z,65.30
2018-07-14T14:27:43.529Z,65.10
2018-07-14T14:30:13.006Z,65.20
2018-07-14T14:32:42.419Z,65.30
2018-07-14T14:35:11.370Z,65.70
2018-07-14T14:37:40.355Z,65.30
2018-07-14T14:40:09.322Z,65.30
2018-07-14T14:42:38.287Z,64.80
2018-07-14T14:45:08.389Z,64.70
2018-07-14T14:47:38.155Z,64.40
2018-07-14T14:50:07.170Z,63.80
2018-07-14T14:52:36.152Z,64.60
2018-07-14T14:55:05.440Z,64.30
2018-07-14T14:57:41.746Z,64.80
2018-07-14T15:00:10.695Z,64.40
2018-07-14T15:02:39.699Z,65.20
2018-07-14T15:05:08.737Z,64.90
2018-07-14T15:07:37.705Z,65.30
2018-07-14T15:10:09.499Z,65.80
2018-07-14T15:12:40.061Z,66.10
2018-07-14T15:15:10.892Z,66.20
2018-07-14T15:17:39.861Z,65.80
2018-07-14T15:20:08.840Z,66.50
2018-07-14T15:22:37.834Z,66.30
2018-07-14T15:25:07.107Z,65.20
2018-07-14T15:27:36.055Z,65.90
2018-07-14T15:30:06.287Z,66.60
2018-07-14T15:32:35.497Z,66.50
2018-07-14T15:35:04.978Z,65.70
2018-07-14T15:37:34.124Z,66.60
2018-07-14T15:40:05.075Z,66.10
2018-07-14T15:42:36.005Z,66.60
2018-07-14T15:45:05.220Z,67.40
2018-07-14T15:47:34.348Z,68.00
2018-07-14T15:50:03.535Z,67.60
2018-07-14T15:52:33.024Z,67.50
2018-07-14T15:55:03.806Z,68.10
2018-07-14T15:57:33.112Z,68.00
2018-07-14T16:00:02.274Z,67.80
2018-07-14T16:02:31.477Z,67.10
2018-07-14T16:05:00.906Z,67.30
2018-07-14T16:07:30.100Z,67.00
2018-07-14T16:09:59.304Z,66.80
2018-07-14T16:12:29.811Z,67.50
2018-07-14T16:15:02.043Z,67.40
2018-07-14T16:17:31.913Z,66.30
2018-07-14T16:20:01.081Z,67.20
2018-07-14T16:22:30.219Z,67.40
2018-07-14T16:25:02.104Z,67.60
2018-07-14T16:27:31.678Z,67.10
2018-07-14T16:30:00.687Z,67.20
2018-07-14T16:32:29.674Z,68.20
2018-07-14T16:34:58.678Z,68.80
2018-07-14T16:37:28.187Z,68.50
2018-07-14T16:39:57.159Z,67.70
2018-07-14T16:42:26.134Z,68.20
2018-07-14T16:44:55.119Z,68.50
2018-07-14T16:47:24.121Z,68.40
2018-07-14T16:49:54.263Z,68.50
2018-07-14T16:52:23.260Z,68.60
2018-07-14T16:54:52.234Z,67.70
2018-07-14T16:57:21.223Z,69.30
2018-07-14T16:59:51.504Z,69.20
2018-07-14T17:02:20.519Z,69.20
2018-07-14T17:04:49.503Z,70.10
2018-07-14T17:07:18.502Z,68.70
2018-07-14T17:09:47.473Z,69.50
2018-07-14T17:12:16.461Z,69.40
2018-07-14T17:14:45.462Z,70.10
2018-07-14T17:17:14.604Z,70.00
2018-07-14T17:19:43.759Z,70.10
2018-07-14T17:22:12.900Z,70.40
2018-07-14T17:24:42.046Z,69.80
2018-07-14T17:27:11.264Z,70.30
2018-07-14T17:29:41.045Z,70.90
2018-07-14T17:32:10.227Z,70.10
2018-07-14T17:34:39.344Z,70.40
2018-07-14T17:37:08.474Z,70.10
2018-07-14T17:39:37.599Z,70.60
2018-07-14T17:42:07.244Z,71.00
2018-07-14T17:44:36.399Z,70.90
2018-07-14T17:47:08.431Z,70.90
2018-07-14T17:49:40.672Z,71.00
2018-07-14T17:52:13.708Z,70.90
2018-07-14T17:54:47.444Z,71.40
2018-07-14T17:57:16.842Z,72.30
2018-07-14T17:59:46.002Z,71.90
2018-07-14T18:02:15.099Z,72.10
2018-07-14T18:04:44.208Z,72.50
2018-07-14T18:07:13.348Z,72.60
2018-07-14T18:12:36.127Z,72.50
2018-07-14T18:15:05.459Z,72.80
2018-07-14T18:17:35.043Z,73.40
2018-07-14T18:20:04.670Z,72.40
2018-07-14T18:22:33.792Z,71.70
2018-07-14T18:25:03.466Z,72.50
2018-07-14T18:27:32.431Z,72.80
2018-07-14T18:30:01.400Z,73.40
2018-07-14T18:32:30.372Z,73.10
2018-07-14T18:34:59.365Z,72.40
2018-07-14T18:37:29.007Z,72.30
2018-07-14T18:39:59.787Z,72.20
2018-07-14T18:42:28.804Z,71.90
2018-07-14T18:44:57.786Z,71.40
2018-07-14T18:47:26.847Z,72.20
2018-07-14T18:49:55.839Z,72.50
2018-07-14T18:52:24.993Z,72.80
2018-07-14T18:54:53.852Z,73.40
2018-07-14T18:57:23.888Z,73.20
2018-07-14T19:02:28.119Z,73.40
2018-07-14T19:04:57.894Z,72.80
2018-07-14T19:07:26.876Z,74.70
2018-07-14T19:09:55.868Z,76.50
2018-07-14T19:12:24.875Z,77.00
2018-07-14T19:14:54.715Z,77.10
2018-07-14T19:17:23.646Z,77.90
2018-07-14T19:19:52.683Z,78.00
2018-07-14T19:22:21.717Z,78.90
2018-07-14T19:24:50.793Z,80.00
2018-07-14T19:27:19.787Z,80.30
2018-07-14T19:29:48.971Z,80.40
2018-07-14T19:32:17.978Z,80.30
2018-07-14T19:34:47.114Z,80.00
2018-07-14T19:37:16.085Z,79.90
2018-07-14T19:39:51.946Z,80.00
2018-07-14T19:42:25.442Z,79.70
2018-07-14T19:44:58.008Z,79.70
2018-07-14T19:47:32.052Z,79.90
2018-07-14T19:50:06.642Z,81.00
2018-07-14T19:52:38.687Z,82.70
2018-07-14T19:55:12.860Z,83.80
2018-07-14T19:57:45.148Z,84.40
2018-07-14T20:00:25.299Z,83.40
2018-07-14T20:03:02.352Z,82.80
2018-07-14T20:05:36.170Z,83.10
2018-07-14T20:08:16.612Z,82.80
2018-07-14T20:10:50.539Z,83.10
2018-07-14T20:13:19.571Z,84.30
2018-07-14T20:15:48.596Z,83.70
2018-07-14T20:18:17.623Z,83.70
2018-07-14T20:20:46.656Z,84.30
2018-07-14T20:23:16.465Z,84.60
2018-07-14T20:25:46.327Z,84.10
2018-07-14T20:28:15.347Z,84.00
2018-07-14T20:30:44.367Z,84.40
2018-07-14T20:33:14.140Z,84.60
2018-07-14T20:35:43.152Z,85.00
2018-07-14T20:38:12.152Z,85.30
2018-07-14T20:40:41.207Z,85.50
2018-07-14T20:43:10.210Z,86.00
2018-07-14T20:45:39.948Z,85.50
2018-07-14T20:48:08.954Z,86.10
2018-07-14T20:50:40.859Z,86.90
2018-07-14T20:53:09.850Z,86.50
2018-07-14T20:55:38.859Z,86.10
2018-07-14T20:58:07.876Z,85.90
2018-07-14T21:00:36.946Z,86.40
2018-07-14T21:03:05.950Z,86.70
2018-07-14T21:05:34.970Z,86.10
2018-07-14T21:08:04.150Z,86.10
2018-07-14T21:10:33.187Z,86.60
2018-07-14T21:13:02.215Z,86.40
2018-07-14T21:15:32.367Z,86.80
2018-07-14T21:18:01.375Z,86.60
2018-07-14T21:20:30.403Z,87.10
2018-07-14T21:22:59.416Z,86.90
2018-07-14T21:25:28.971Z,87.90
2018-07-14T21:27:58.164Z,87.30
2018-07-14T21:30:27.191Z,88.70
2018-07-14T21:32:56.196Z,88.30
2018-07-14T21:35:25.231Z,88.30
2018-07-14T21:37:54.222Z,89.10
2018-07-14T21:40:24.458Z,90.00
2018-07-14T21:42:53.473Z,89.60
2018-07-14T21:45:22.490Z,89.40
2018-07-14T21:47:52.184Z,89.60
2018-07-14T21:50:21.252Z,89.80
2018-07-14T21:52:50.270Z,89.70
2018-07-14T21:55:19.319Z,89.80
2018-07-14T21:57:48.316Z,89.90
2018-07-14T22:00:29.027Z,89.90
2018-07-14T22:02:58.029Z,90.20
2018-07-14T22:05:27.085Z,90.20
2018-07-14T22:07:56.129Z,90.40
2018-07-14T22:10:25.184Z,90.60
2018-07-14T22:12:54.984Z,90.80
2018-07-14T22:17:53.684Z,90.90
2018-07-14T22:20:24.551Z,90.70
2018-07-14T22:22:54.318Z,91.10
2018-07-14T22:25:23.313Z,91.00
2018-07-14T22:27:52.270Z,91.00
2018-07-14T22:30:21.280Z,90.90
2018-07-14T22:32:50.231Z,91.10
2018-07-14T22:35:19.225Z,91.70
2018-07-14T22:37:48.179Z,91.70
2018-07-14T22:40:17.144Z,92.10
2018-07-14T22:42:46.953Z,91.90
2018-07-14T22:45:15.941Z,91.80
2018-07-14T22:47:45.339Z,92.00
2018-07-14T22:50:14.363Z,91.70
2018-07-14T22:52:43.323Z,92.00
2018-07-14T22:55:12.321Z,92.40
2018-07-14T22:57:41.272Z,92.50
2018-07-14T23:00:10.240Z,92.60
2018-07-14T23:02:39.219Z,93.40
2018-07-14T23:05:08.235Z,93.40
2018-07-14T23:07:37.187Z,93.10
2018-07-14T23:10:06.801Z,93.40
2018-07-14T23:12:35.745Z,93.40
2018-07-14T23:15:04.970Z,93.60
2018-07-14T23:17:33.928Z,93.40
2018-07-14T23:20:02.878Z,93.60
2018-07-14T23:22:31.855Z,93.70
2018-07-14T23:25:00.887Z,93.70
2018-07-14T23:27:29.856Z,93.60
2018-07-14T23:29:58.903Z,93.60
2018-07-14T23:32:27.873Z,93.70
2018-07-14T23:34:56.843Z,93.90
2018-07-14T23:37:26.710Z,94.20
2018-07-14T23:42:24.254Z,94.30
2018-07-14T23:44:53.217Z,94.10
2018-07-14T23:47:22.192Z,94.10
2018-07-14T23:49:51.164Z,94.20
2018-07-14T23:52:20.178Z,94.30
2018-07-14T23:54:49.143Z,94.20
2018-07-14T23:57:18.139Z,93.80
2018-07-14T23:59:47.129Z,94.00
